Ergebnisse

Jahr:   Wertung:
Suche nach:
 
Gesucht wird in Name, Vorname, Verein - Groß-/Kleinschreibung egal
Keine Suchmöglichkeit bei „Immer im Ziel“!

Ergebnisliste 9. LLG Kevelaer-Marathon 2011

Offizielle Zeitnahme durch Mika timing

Erdinger Alkoholfrei

Ansicht/Download der Liste als PDF-Datei

Klick auf den Namen fŘhrt zur Detailanzeige und zum Urkundendruck!

Pl.
ges.
Pl.
 AK
Pl.
M/W
Start
Nr.
Name AKJgVereinZeit
brutto
Zeit
netto
1 1 1 106 Wilms, Robert (DEU) MHK 1987 (Schalksm├╝hle) 2:53:09 2:53:08
2 1 2 280 Schrage, Burkhard (DEU) M30 1978 Marathon Soest 3:00:28 3:00:27
3 1 3 119 Piechocki, Michael (DEU) M35 1973 ASV Duisburg 3:01:22 3:01:21
4 1 4 276 Jans, Marco (NED) M45 1962 ATV Venray 3:03:09 3:03:09
5 2 5 545 Engel, Bernd (DEU) M45 1966 HSC 1990 Gamlen 3:03:33 3:03:32
6 2 6 363 Lawrenz, Leif (DEU) M30 1980 ESV Meiderich 3:04:47 3:04:45
7 3 7 380 Jachymczyk, Norbert (POL) M30 1978 KB MCKiS Jaworzno 3:06:02 3:06:00
8 1 8 365 Lorenz, Michael (DEU) M50 1958 TV Huchem Stammeln 3:07:57 3:07:54
9 2 9 49 Winkler, Ingolf (DEU) M35 1972 TG Neuss 3:08:29 3:08:27
10 3 10 381 Westenholz, Piotr (POL) M45 1964 KB MCKiS Jaworzno 3:09:21 3:09:19
11 2 11 62 Berndstrotmann, Karl (DEU) M50 1957 SuS Olfen 3:10:25 3:10:22
12 4 12 199 Kaminsky, Peter (DEU) M30 1977 LG Emsdetten 3:11:41 3:11:38
13 4 13 386 Weber, Burkhard (DEU) M45 1964 Rott Runner Wupppertal 3:12:05 3:12:04
14 3 14 129 Vogt, Wolfgang (DEU) M50 1959 Feuerwehr SV D├╝sseldorf 3:12:42 3:12:38
15 3 15 353 Roland, Marc (DEU) M35 1976 Bratwurst Runners 3:14:25 3:14:01
16 5 16 133 Jago, Andreas (DEU) M45 1962 LG Monheim/Baumberg 3:15:15 3:15:10
17 1 17 144 Schmidt, Rainer (DEU) M40 1967 LG Alpen 3:15:53 3:15:52
18 6 18 8 Schax, Manfred (DEU) M45 1966 SV Viktoria Winnekendonk 3:17:06 3:16:38
19 7 19 91 Brudereck, Martin (DEU) M45 1966 (Bedburg-Hau) 3:17:26 3:17:13
20 2 20 225 Janssen, Michael (DEU) M40 1968 (Goch) 3:17:48 3:17:35
21 1 21 51 L├Ąmmlein, Franz (DEU) M55 1952 LLG St.Augustin 3:18:14 3:18:13
22 8 22 377 Fischer, Gerd (DEU) M45 1964 LTH Essen 3:18:19 3:18:08
23 2 23 38 Jacob, Klaus (DEU) M55 1956 SUS Schalke 96 3:18:23 3:18:19
24 9 24 101 Overhage, Lothar (DEU) M45 1962 DJK-FV Haaren (Aachen) 3:18:31 3:18:28
25 1 1 527 Hufe, Mareen (DEU) W30 1978 Triminators TV Voerde 3:18:55 3:18:42
26 4 25 196 Beckmann, Stefan (DEU) M50 1959 TV Borken 3:18:56 3:18:44
27 5 26 333 van Dongen, Werner (DEU) M50 1959 TSV Weeze 3:19:02 3:18:59
28 5 27 304 Schierholz, J├Ârg (DEU) M30 1980 SV Siegfried Materborn 3:20:18 3:20:17
29 6 28 530 Weis, Ralf (DEU) M50 1959 SG Neukirchen-H├╝lchrath 3:21:24 3:21:20
30 3 29 549 Apelmeier, Markus (DEU) M40 1969 SUS Schalke 96 3:21:50 3:21:44
31 10 30 388 Delp, Johann (DEU) M45 1963 OMS Bad Windsheim 3:22:04 3:21:38
32 7 31 512 Weyenberg, Karl-Heinz (DEU) M50 1960 TSV Weeze 3:22:04 3:22:00
33 1 2 34 M├Âllensiep, Sybille (DEU) W45 1962 SUS Schalke 96 3:22:35 3:22:31
34 11 32 123 Foreman, Stefan (DEU) M45 1966 TSV Weeze 3:22:45 3:22:41
35 4 33 110 Winkelmann, Sven (DEU) M35 1972 LG Donatus Erftstadt 3:22:49 3:22:40
36 8 34 173 Schmidders, Ralph (DEU) M50 1959 AS Neukirchen-Vluyn 3:23:45 3:23:37
37 12 35 146 Gierling, Volker (DEU) M45 1966 TuRa Br├╝ggen 1923 e.V. 3:24:12 3:24:06
38 6 36 13 Dr. Houben, Niels (NED) M30 1977 AV Helden 3:24:14 3:24:11
39 13 37 361 de Vries, Bennie (NED) M45 1965 (Stadskanaal) 3:24:20 3:24:19
40 9 38 211 Thockok, Laurenz (DEU) M50 1957 SV 19 Straelen 3:24:58 3:24:52
41 1 3 243 Jedras, Barbara (POL) W40 1970 TuSEM Essen 3:25:30 3:25:28
42 5 39 283 Ockl, Alexander (DEU) M35 1973 TuSEM Essen 3:25:30 3:25:29
43 3 40 338 Barten, Antonius (NED) M55 1955 GSV Geldern 09/34 3:26:00 3:25:52
44 14 41 548 Fileccea, Marco (DEU) M45 1963 (Oberhausen) 3:26:48 3:26:40
45 15 42 132 Dietz, Ralph (DEU) M45 1963 100 Marathon Club 3:26:53 3:26:48
46 16 43 10 Rodermond, Klaus (DEU) M45 1965 SuS Gr├╝n-Wei├č Kalkar 3:27:05 3:26:46
47 10 44 528 Ahlrichs, Frank (DEU) M50 1961 (Dortmund) 3:27:25 3:27:10
48 4 45 285 Zindler, Markus (DEU) M40 1969 (D├╝sseldorf) 3:27:42 3:27:34
49 4 46 222 Jan├čen, Heinz (DEU) M55 1955 SV Siegfried Materborn 3:27:45 3:27:43
50 1 47 33 Thamm, Wolfgang (DEU) M65 1946 SUS Schalke 96 3:27:49 3:27:44
51 11 48 392 Dreser, G├╝nther (DEU) M50 1959 LT Ahrweiler 3:28:05 3:28:01
52 17 49 142 Traeger, Ralf (DEU) M45 1965 (Gro├čbeeren) 3:28:14 3:28:01
53 12 50 165 Niederges├Ą├č, Frank (DEU) M50 1960 LC Duisburg 3:28:25 3:27:51
54 5 52 117 Fischer, Markus (DEU) M40 1967 Tempo Colonia 3:28:34 3:28:21
55 13 51 332 Klotz, Stefan Andreas (DEU) M50 1958 ASV K├Âln 3:28:34 3:28:21
56 6 53 317 Bucher, Andre (DEU) M40 1968 Krefelder Kanu Klub 3:28:43 3:28:40
57 7 54 302 Schick, Dominik (DEU) M30 1979 SV N├Âthen 3:28:54 3:28:51
58 18 55 134 Oesterheld, Frank (DEU) M45 1964 Feuerwehr SV D├╝sseldorf 3:29:15 3:29:12
59 19 56 242 Wefers, Frank (DEU) M45 1966 marathonteam-online.de 3:29:42 3:29:16
60 7 57 80 Brathe, Georg (DEU) M40 1970 Spiridon Haltern 3:31:15 3:31:08
61 2 4 396 Lehmann, Anke (DEU) W40 1970 Sport Matern 3:31:21 3:31:02
62 14 58 25 G├╝dden, Stefan (DEU) M50 1960 (Bedburg-Hau) 3:31:47 3:31:26
63 3 5 86 Wiethoff, Conny (DEU) W40 1967 Renntiere 3:31:48 3:31:42
64 20 59 31 Plitt, Carsten (DEU) M45 1966 LC Duisburg 3:31:59 3:31:55
65 1 60 32 Scharrenberg, Ulrich (DEU) M60 1948 ASV-LT Kemperdick 3:33:26 3:33:22
66 8 61 321 M├Ârth, Sascha (DEU) M40 1970 Runfit+ Personal Training 3:34:16 3:34:07
67 15 62 523 Heeger, Peter (DEU) M50 1961 (Rheine) 3:34:41 3:34:29
68 2 63 45 Schmidt, Werner (DEU) M60 1951 LC Duisburg 3:34:45 3:34:41
69 9 64 266 Pretorius, Dirk (DEU) M40 1969 LG Donatus Erftstadt 3:34:46 3:34:37
70 16 65 245 Bootsmann, J├╝rgen (DEU) M50 1959 Lauftreff L├╝dinghausen 3:34:49 3:34:43
71 17 66 193 Vater, Roland (DEU) M50 1960 run4fun 3:35:39 3:35:14
72 3 67 286 Janke, Dietmar (DEU) M60 1951 SC Selters 3:35:52 3:35:49
73 2 68 149 Jedryka, Lukas (DEU) MHK 1982 VfB Alemannia Pfalzdorf 3:36:23 3:36:03
74 8 69 90 Heinen, Daniel (DEU) M30 1980 (Kamp-Lintfort) 3:37:10 3:36:40
75 21 70 505 Wehling, Walter (DEU) M45 1963 Running TV Bedburg 3:38:52 3:38:44
76 3 71 75 Sch├Ąfer, David (DEU) MHK 1987 Troisdorfer LG M.U.T. 3:39:02 3:38:30
77 4 72 539 Dr. Gendrault, Jean Pierre (FRA) M60 1948 avVN 3:39:27 3:39:25
78 6 73 344 Coellner, Fabio (DEU) M35 1972 (Erpel) 3:40:00 3:39:59
79 22 74 385 Jungermann, Michael (DEU) M45 1963 (Dinslaken) 3:40:26 3:39:53
80 10 75 298 Tillen, Axel (DEU) M40 1971 Beimer-Team 3:40:28 3:40:01
81 7 76 372 Niederhofer, Stefan (DEU) M35 1973 TuS Breckerfeld 3:42:25 3:42:08
82 23 77 4 Jung, Winfried (DEU) M45 1962 SC Rotenstein 3:42:52 3:42:42
83 18 78 3 Peters, Josef (DEU) M50 1958 KSV Kevelaer 3:42:56 3:42:48
84 24 79 355 Giersberg, Andreas (DEU) M45 1965 Stadt Bochum Team 3:43:47 3:43:45
85 5 80 524 Kruijff, Johannes (NED) M55 1954 LBN Duisburg 3:44:17 3:43:43
86 11 81 174 Spieckermann, Andreas (DEU) M40 1968 Feuerwehr SV D├╝sseldorf 3:44:40 3:44:24
87 8 82 94 Ishida, Masafumi (JPN) M35 1974 Team 2 in 1 3:45:03 3:44:21
88 6 83 256 Ka├čner, Ludger (DEU) M55 1952 Schomml├Ąufer Waldniel 3:45:26 3:45:17
89 25 84 525 Lohrke, Ralf (DEU) M45 1965 (Werne) 3:46:02 3:45:41
90 12 85 169 Krings, Helmut (BEL) M40 1967 (Stavelot) 3:46:15 3:45:41
91 9 86 330 Steufmehl, Claus (DEU) M30 1979 (Erkelenz) 3:46:17 3:45:51
92 26 87 359 G├Ąntgen, Peter (DEU) M45 1962 Sportlich-Team Bornheim 3:47:44 3:47:36
93 9 88 345 Hahne, Klaus (DEU) M35 1973 (Frankfurt am Main) 3:48:22 3:47:53
94 19 89 63 M├╝ller, Heiko (DEU) M50 1961 (Kempen) 3:48:40 3:48:28
95 13 90 520 Wisch├Ârster, Andreas (DEU) M40 1970 LT L├╝dinghausen 3:48:51 3:48:45
96 27 91 258 Riedel, Roland (DEU) M45 1963 Adler-Langlauf Bottrop 3:49:26 3:49:06
97 14 92 122 Feichtinger, Axel (DEU) M40 1967 (Duisburg) 3:49:41 3:49:27
98 15 93 223 Scholz, Scholle (DEU) M40 1970 LT Br├╝ggen 3:49:49 3:49:45
99 16 94 11 van Straelen, Guido (DEU) M40 1971 GSV Geldern 09/34 3:50:01 3:49:54
100 7 95 96 Unterberg, Reiner (DEU) M55 1956 LG Alpen 3:50:06 3:49:42
101 1 6 295 Rammonat, Iris (DEU) WHK 1982 LT Sun Planet Dorsten 3:50:15 3:49:56
102 20 96 82 Slabon, Raimund (DEU) M50 1960 LG DUV 3:50:30 3:50:27
103 21 97 185 Geiger, Matthias (DEU) M50 1960 NiersRunners Wachtendonk 3:50:47 3:50:36
104 22 98 12 Elting, Ludger (DEU) M50 1958 LT SV Haldern 3:50:48 3:50:38
105 2 7 249 Spengler, Friederike (DEU) W45 1963 BSG Springorum Bochum 3:51:17 3:51:08
106 23 99 60 Stalinski, Dirk (DEU) M50 1961 TV Goch 3:51:36 3:51:06
107 24 100 287 Scheitza, Falko (DEU) M50 1961 DJK Preussen 1911 Bochum 3:51:51 3:51:33
108 5 101 89 Dr. Herteleer, Christian (BEL) M60 1950 JC Aalter 3:52:08 3:51:52
109 1 8 542 Annegarn, Els (NED) W55 1956 avVN 3:52:44 3:52:42
110 28 102 194 Hagel, Thomas (DEU) M45 1963 run4fun 3:52:52 3:52:26
111 29 103 14 Schmidt, Rainer (DEU) M45 1966 LT Krefeld-Oppum 3:52:59 3:52:48
112 30 104 519 Theeuwen, Sraar (NED) M45 1963 Peelrunners 3:53:13 3:53:03
113 6 105 102 Beer, Michael (DEU) M60 1951 Lauftreff L├╝dinghausen 3:53:15 3:53:09
114 31 106 518 Wendlandt, Horst (DEU) M45 1963 SV Gelnhausen 3:53:21 3:53:14
115 17 107 328 van der Heijden, Rudy (NED) M40 1969 AV Olympus Land van Cuijk 3:53:27 3:53:08
116 7 108 349 Richmann, Wolfgang (DEU) M60 1950 LG M├╝lheim 3:53:50 3:53:41
117 8 109 375 Gr├Ąwe, Detlef (DEU) M55 1953 Tri-As Hamm 3:53:54 3:53:48
118 32 110 192 Sanders, J├╝rgen (DEU) M45 1965 RT Backfieldrunners Bocholt 3:54:03 3:53:55
119 25 111 356 Verholt, Udo (DEU) M50 1959 LT Guido 3:54:09 3:53:51
120 4 9 248 Krepel, Sabine (DEU) W40 1970 (K├Âln) 3:54:26 3:53:53
121 9 112 326 van Reemst, Cees (NED) M55 1953 ACTION48.nl 3:54:28 3:53:57
122 18 113 200 Renkens, Heinz-Peter (DEU) M40 1968 (Geldern) 3:54:30 3:53:59
123 19 114 337 Freckmann, Ralf (DEU) M40 1970 (Rheinberg-Borth) 3:54:36 3:54:04
124 33 115 514 Vollbracht, Ralf (DEU) M45 1963 LC Duisburg 3:54:58 3:54:34
125 4 116 537 Petersen, Niklas (DEU) MHK 1984 Lauffreunde Hadi Wesel 3:55:32 3:55:06
126 1 117 46 Sch├Ąfers, Gottfried (DEU) M70 1938 LSF M├╝nster 3:56:15 3:56:08
127 20 118 553 Willems, Andr├ę (DEU) M40 1967 Troisdorfer LG M.U.T. 3:56:27 3:55:55
128 26 120 320 Beaupoil, Thomas (DEU) M50 1960 SV Viktoria Goch 3:56:35 3:56:00
129 8 119 128 Heimken, Wolfgang (DEU) M60 1947 (Recklinghausen) 3:56:35 3:56:31
130 34 121 547 Heuwing, Martin (DEU) M45 1963 Lokomotive Teichweg 3:56:51 3:56:13
131 21 122 54 Exner, Stefan (DEU) M40 1967 Geros Lauftreff Almke/Uedem 3:56:56 3:56:50
132 10 123 334 Leenhouts, Bart (NED) M35 1976 (Oostburg) 3:57:25 3:56:43
133 35 124 205 Thockok, Johannes (DEU) M45 1963 SV 19 Straelen 3:57:42 3:57:30
134 27 125 278 Becker, Mattin (DEU) M50 1960 Troisdorfer LG M.U.T. 3:57:45 3:57:14
135 28 126 137 Retzlaff, Harald (DEU) M50 1961 BSG Springorum Bochum 3:57:53 3:57:44
136 36 127 235 Kriwet, Elmar J. (DEU) M45 1965 (K├Âln) 3:58:04 3:57:31
137 10 128 29 Eicher, Horst (DEU) M55 1954 (Overath) 3:58:18 3:57:47
138 11 129 56 Schoog, Peter (DEU) M55 1955 (Speyer) 3:58:27 3:58:11
139 11 130 274 Wisse, Daniel (DEU) M35 1975 (Geldern) 3:58:28 3:57:47
140 10 131 373 Stein, Timo (DEU) M30 1980 (Gelsenkirchen) 3:58:36 3:58:23
141 12 132 212 Weidemann, Meik (DEU) M35 1975 (Moers) 3:58:52 3:58:31
142 37 133 23 Beckmann, Thomas (DEU) M45 1965 (Willich) 3:58:57 3:58:36
143 13 134 259 Lohoff, Wilm (DEU) M35 1973 RCL 98 L├╝denscheid 3:59:05 3:58:50
144 22 135 215 Bormacher, Dirk (DEU) M40 1971 marathonteam-online.de 3:59:19 3:58:50
145 38 136 69 F├Ârster, Uwe (DEU) M45 1964 (Neuss) 3:59:20 3:58:43
146 12 137 168 Aben, Leo (DEU) M55 1954 (Geldern) 3:59:40 3:59:28
147 11 138 30 Schmidt-Soltau, Peer (DEU) M30 1981 100 Marathon Club 3:59:46 3:59:26
148 39 139 26 Mai, Christian (DEU) M45 1965 LT SV Haldern 4:00:04 3:59:54
149 13 140 360 Scholz, Wolfgang (DEU) M55 1956 TuRa Br├╝ggen 1923 e.V. 4:00:08 4:00:02
150 2 141 325 Friend, Alan (GBR) M65 1946 OSC Waldniel 4:00:43 4:00:28
151 5 10 264 Falkenstein, Britta (DEU) W40 1967 LT Sun Planet Dorsten 4:02:25 4:02:07
152 40 142 350 Merfort, Michael (DEU) M45 1963 LT Krefeld-Oppum 4:02:49 4:02:32
153 23 143 354 Elmalki, Idriss (DEU) M40 1968 (Nettetal) 4:03:54 4:03:44
154 41 144 293 Gietmann, Josef (DEU) M45 1962 Heesjogger Borussia Veen 4:03:55 4:03:21
155 24 145 504 Schneiders, Ralf (DEU) M40 1967 Lauffreunde Hadi Wesel 4:04:35 4:04:16
156 25 146 155 Altena, Michael (DEU) M40 1969 LC Duisburg 4:05:46 4:05:12
157 1 11 158 Bullig, Cornelia (DEU) W50 1959 Troisdorfer LG M.U.T. 4:06:26 4:05:59
158 14 147 376 Klein, Hans-J├╝rgen (DEU) M55 1953 LTH Essen 4:06:37 4:06:08
159 29 148 92 Gerlach, J├Ârg (DEU) M50 1960 100 Marathon Club 4:06:38 4:06:18
160 2 149 145 Struwe, Burckhard (DEU) M70 1941 BSG Springorum Bochum 4:07:02 4:06:53
161 26 150 288 Stangneth, Dirk (DEU) M40 1969 (Oberhausen) 4:07:24 4:07:04
162 2 12 260 Wilms, Karoline (DEU) WHK 1990 Up-And-Down Heedfeld 4:07:43 4:07:28
163 15 151 231 Littwin, R├╝diger (DEU) M55 1953 LT Lippehasen 4:08:09 4:07:35
164 30 152 550 Gr├╝tering, Ludwig (DEU) M50 1959 (Dorsten) 4:08:09 4:07:35
165 42 153 340 Theissen, Markus (DEU) M45 1963 LG M├╝tzenich 4:08:10 4:07:31
166 31 154 263 Ickert, Peter (DEU) M50 1961 R├Ântgen Sport Club Remscheid 4:08:43 4:08:32
167 6 13 371 Link-Holtermann, Elke (DEU) W40 1969 TuS Breckerfeld 4:08:58 4:08:39
168 7 14 303 Churavy, Sabine (DEU) W40 1969 Weisser Ring 4:09:25 4:09:08
169 43 155 151 Quentin, Joerg (DEU) M45 1963 Lauftreff TSV Bienenb├╝ttel 4:09:27 4:08:56
170 44 156 531 Witzler, Frank (DEU) M45 1962 Jogmap 4:09:29 4:09:11
171 2 15 382 Bergmann, Iris (DEU) W50 1961 DJK Gr├╝n-Wei├č Nottuln 4:09:30 4:09:12
172 45 157 210 Spamer, Kay (DEU) M45 1966 Radtteam / LT Neu-Isenburg 4:09:48 4:09:03
173 3 16 209 Helmuth, Andrea (DEU) W45 1963 Radtteam / LT Neu-Isenburg 4:09:48 4:09:04
174 32 158 346 Fust, Ulrich (DEU) M50 1961 LT Lustige Schleicher Essen 4:10:20 4:09:36
175 33 159 229 Ebbert, Norbert (DEU) M50 1959 LG DUV 4:11:10 4:10:48
176 46 160 189 Schranz, J├Ârg (DEU) M45 1965 Borbecker Raketen Essen 4:11:10 4:10:50
177 4 17 506 Farber, Dagmar (DEU) W45 1965 LT SV Haldern 4:11:48 4:11:38
178 8 18 398 Rosenkamp, Yvonne (NED) W40 1967 AV Salland 4:11:53 4:11:12
179 47 161 254 Balsen, Georg Maria (DEU) M45 1963 Beimer-Team 4:11:55 4:11:27
180 34 162 16 B├Âsken, Frank (DEU) M50 1959 Fanprojekt Leverkusen 4:11:57 4:11:20
181 35 163 21 Wenzel, Christoph (DEU) M50 1960 100 Marathon Club 4:13:49 4:13:26
182 48 164 324 R├Âskens, Klaus (DEU) M45 1963 Viersener TV 4:14:13 4:13:38
183 49 165 509 Ballay, Thomas (DEU) M45 1963 SC Rot Wei├č Verne 4:14:23 4:14:18
184 36 166 191 Spanier, Volker (DEU) M50 1959 KatholischeLaufjugendArnstadt 4:14:45 4:14:42
185 1 19 157 Tenbieg, Edith (DEU) W35 1972 (Kranenburg) 4:15:07 4:14:23
186 37 167 187 Ader, Lutz (DEU) M50 1959 BSG Aon Jauch & 4:15:12 4:14:58
187 12 168 190 Chotsubo, Nobumasa (JPN) M30 1978 Tsuboya of the world 4:15:31 4:14:47
188 9 169 99 Kerkenbusch, Werner (DEU) M60 1947 VfL Bergheide 4:16:29 4:16:19
189 38 170 170 Lempken, Uwe (DEU) M50 1961 Homberger TV 4:16:45 4:16:23
190 50 171 534 Jablonski, Andreas (DEU) M45 1962 LT Issum Turboschnecken 4:16:53 4:16:16
191 14 172 27 J├╝chter, Birger (DEU) M35 1972 Team Erdinger Alkoholfrei 4:16:58 4:16:20
192 51 173 272 Ludden, Peter (DEU) M45 1962 Gerscheder SV Essen 4:16:58 4:16:21
193 39 174 507 Arenz, Frank (DEU) M50 1959 LG Donatus Erftstadt 4:18:36 4:18:27
194 40 175 501 Otto, Ullrich (DEU) M50 1959 LG Donatus Erftstadt 4:18:36 4:18:27
195 41 176 362 Dr. Rochlitz, Karl-Heinz (DEU) M50 1959 Lauftreff Bundesnetzagentur 4:18:39 4:18:12
196 52 177 17 Feldhaus, Thomas (DEU) M45 1966 TriSpeed Herscheid 4:19:02 4:18:51
197 16 178 370 Junker, Gerd (DEU) M55 1956 TSV Wallenhorst 4:19:24 4:18:57
198 42 179 41 Herzig, Uli (DEU) M50 1959 (Moers) 4:19:34 4:19:13
199 53 180 301 Schmelter, Rainer (DEU) M45 1966 (K├Âln) 4:19:58 4:19:25
200 10 181 544 Castelein, Tillo (BEL) M60 1949 JC Aalter 4:20:09 4:19:52
201 5 20 5 Passon, Sylvia (DEU) W45 1964 Beimer-Team 4:20:48 4:20:18
202 43 182 378 Braun, Uwe (DEU) M50 1958 LTH Essen 4:20:49 4:20:20
203 2 21 529 Hertz, Gisela (DEU) W55 1955 Marathon Steinfurt 4:21:40 4:21:13
204 44 183 140 M├╝ller-Zeder, Ralph (DEU) M50 1960 TV Runkel 4:22:22 4:21:47
205 54 184 511 Dr. Krull, Jo (DEU) M45 1965 Marathonjunky-Lauftreff Br├╝gge 4:22:39 4:22:32
206 17 185 513 Tomaschewski, Ulrich (DEU) M55 1954 100 Marathon Club 4:22:40 4:22:20
207 2 22 44 Struck, Sandra (DEU) W35 1976 marathonteam-online.de 4:23:15 4:22:45
208 18 186 394 Konter, Thijm (NED) M55 1952 AV Salland 4:23:52 4:23:12
209 27 187 502 Sommerhof, Michael (DEU) M40 1970 (Bonn) 4:24:01 4:23:54
210 9 23 313 Roth, Katrin (DEU) W40 1968 BSG Stadtwerke Duisburg AG 4:24:03 4:23:24
211 15 188 24 Diekow, Arne (DEU) M35 1975 (D├╝sseldorf) 4:24:08 4:23:47
212 45 189 262 Marthin, Dieter (DEU) M50 1961 ASV S├╝chteln 4:24:20 4:24:16
213 3 24 292 Theunissen, Gertie (NED) W50 1961 Eindhoven Atletiek 4:24:24 4:23:59
214 19 190 224 Vandewal, Jacques (BEL) M55 1952 Worldrunners Belgium 4:24:24 4:23:59
215 46 191 113 Wenzel, Ralf (DEU) M50 1961 Beimer-Team 4:24:48 4:24:19
216 6 25 244 Lorenz, Birgit (DEU) W45 1963 (Geldern) 4:24:55 4:24:29
217 10 26 71 Muschalla, Sylke (DEU) W40 1967 LG Alpen 4:25:22 4:24:57
218 55 192 127 Rohr, Claus (DEU) M45 1964 Marathon M├╝lheim 4:25:32 4:24:59
219 47 193 148 Klauke, Helmut (DEU) M50 1958 TV Flerke 4:26:36 4:26:17
220 16 195 517 Klingelh├Âfer, Markus (DEU) M35 1973 LC Duisburg 4:26:45 4:26:09
221 56 194 336 Huth, Thorsten (DEU) M45 1962 LC Duisburg 4:26:45 4:26:10
222 3 196 383 Honing, Gijs (NED) M65 1945 avVN 4:27:13 4:26:52
223 13 197 357 Pawellek, Karsten (DEU) M30 1981 (Bochum) 4:27:37 4:27:34
224 5 198 172 Servos, Stefan (DEU) MHK 1986 (Krefeld) 4:27:51 4:27:25
225 4 27 251 Jongmanns, Elisabeth (DEU) W50 1960 Beimer-Team 4:28:43 4:28:13
226 11 199 339 Baldo, Walter (ITA) M60 1949 LT Krefeld-Oppum 4:29:45 4:29:29
227 48 200 297 Drescher, Hans (DEU) M50 1958 Solinger LC 4:30:15 4:29:41
228 12 201 240 Janseps, Alfred Jakob (DEU) M60 1951 Beimer-Team 4:30:43 4:29:57
229 20 201 153 Roche, Wilfried (DEU) M55 1955 Beimer-Team 4:30:43 4:30:14
230 28 203 312 Schneckenberg, Thomas (DEU) M40 1970 (Viersen) 4:30:56 4:30:42
231 29 204 156 Schwenske, Torsten (DEU) M40 1970 LDT Bochum 4:31:15 4:31:00
232 21 205 53 Westen, Lothar (DEU) M55 1955 LC Duisburg 4:31:18 4:31:01
233 30 206 167 Wi├čmann, Marcus (DEU) M40 1968 LDT Bochum 4:32:12 4:31:56
234 31 207 516 Richter, Frank (DEU) M40 1970 FRguy 4:33:25 4:32:42
235 57 208 314 Roth, Holger (DEU) M45 1966 BSG Stadtwerke Duisburg AG 4:35:15 4:34:35
236 13 209 95 Milkereit, Willi (DEU) M60 1950 LT Issum Turboschnecken 4:35:32 4:34:56
237 49 210 233 Schmitz, Arno (DEU) M50 1958 Sartorius Aachen 4:35:42 4:35:14
238 58 211 104 Hei├čing, Peter (DEU) M45 1966 SuS Gr├╝n-Wei├č Kalkar 4:35:56 4:35:15
239 50 213 341 Kleinmann, Klaus (DEU) M50 1960 Bunerts Teamgeist 4:35:56 4:35:16
240 14 212 515 van Beeck, Stefan (DEU) M30 1977 Bunerts Teamgeist 4:35:56 4:35:16
241 7 28 164 Schoenfeldt, Isolde (DEU) W45 1964 TV Goch 4:35:59 4:35:45
242 3 214 125 Meyer, Hans-Joachim (DEU) M70 1939 100 Marathon Club 4:37:35 4:37:07
243 3 29 389 Rolfes, Maria (DEU) W55 1954 LT Waldschl.Lohne/TEA/100MC 4:38:03 4:37:36
244 2 30 342 Siebe, Birte (DEU) W30 1977 L├╝bbecker Bergl├Âwen 4:38:03 4:37:36
245 59 215 72 Bartsch, Frank (DEU) M45 1965 Freiw. Feuerwehr Bergkamen 4:38:59 4:38:37
246 22 216 107 Neumann, Klaus (DEU) M55 1952 100 Marathon Club 4:39:46 4:39:04
247 60 217 65 Kobus, Karlheinz (DEU) M45 1966 marathon4you.de 4:39:46 4:39:23
248 61 218 220 Steidl, Bernhard (DEU) M45 1964 (Kamp-Lintfort) 4:39:55 4:39:24
249 15 219 401 Lange, Stefan (DEU) M30 1979 LG Ratio M├╝nster 4:40:02 4:40:00
250 14 220 79 Dr. Rehers, HaWe (DEU) M60 1947 OSC/100MC/DUV/TEA 4:40:27 4:39:39
251 51 221 112 Bieker, Christoph (DEU) M50 1961 LT Lustige Schleicher Essen 4:40:53 4:40:09
252 15 222 327 Eberle, Dietrich (DEU) M60 1951 1974 Marathon Verein d.e. 4:41:05 4:40:31
253 23 223 535 Drexler, Hans (DEU) M55 1953 Lahmsoggen Nation 4:41:46 4:41:05
254 62 225 551 Schmitz, Henning (DEU) M45 1962 LC Duisburg 4:43:37 4:43:15
255 52 224 15 Binias, J├╝rgen (DEU) M50 1960 LC Duisburg 4:43:37 4:43:21
256 4 226 154 Eberhard, Dieter (DEU) M65 1944 SV Viktoria Goch 4:44:22 4:43:43
257 4 227 48 Kleinekoort, Hans (NED) M70 1939 AV Pijnenburg 4:44:42 4:44:21
258 24 228 367 Spoelstra, Francis (NED) M55 1956 (Leiden) 4:45:10 4:45:10
259 5 229 290 Bach, Walter (DEU) M65 1946 Beimer-Team 4:45:51 4:45:24
260 16 230 369 Peters, Werner (DEU) M60 1950 Running TV Bedburg 4:46:50 4:46:13
261 63 231 159 K├╝llertz, Dietmar (DEU) M45 1966 Beimer-Team 4:47:07 4:46:38
262 64 232 226 Fengels, Berthold (DEU) M45 1966 Zum Twee ├ťhrken Team M├Âllen 4:47:21 4:46:32
263 5 31 306 Hermann, Anita (DEU) W50 1961 TV Sevelen 4:47:54 4:47:44
264 5 233 176 Hinkel, Friedrich (DEU) M70 1940 TV Lemberg 4:49:36 4:49:12
265 53 234 554 K├╝hnen, Johannes (DEU) M50 1959 TSV Weeze 4:51:24 4:51:14
266 3 32 536 Pinten, Verena (DEU) W30 1981 (Winringen) 4:51:59 4:51:14
267 32 235 103 Pfl├╝gler, Christian (DEU) M40 1967 100 Marathon Club 4:53:31 4:52:56
268 6 236 73 R├Âsner, Karl-Ernst (DEU) M70 1938 TSV Hochdahl 64 e.V. 4:53:50 4:53:24
269 33 237 281 Gietmann, Michael (DEU) M40 1967 Mein erster Marathon 4:56:18 4:55:59
270 54 238 309 Wachholz, Thomas (DEU) M50 1961 Rumelner TV 4:56:20 4:55:54
271 25 239 219 Lukasik, Jo (NED) M55 1956 (Tegelen) 5:01:31 4:59:05
272 26 240 43 Verweyen, Jan (DEU) M55 1952 SuS Gr├╝n-Wei├č Kalkar 5:02:15 5:01:37
273 65 241 217 Sembach, Markus (DEU) M45 1962 DJK Gr├╝n Weiss Werl 5:03:34 5:03:16
274 8 33 108 Frick, Susanne (DEU) W45 1966 Beimer-Team 5:06:22 5:05:54
275 1 34 47 Werz, Renate (DEU) W60 1947 100 Marathon Club 5:10:18 5:10:06
276 16 242 218 Schleuter, Michael (DEU) M30 1979 SV L├╝llingen 5:13:48 5:13:31
277 27 243 130 Kopka, Dieter (DEU) M55 1956 (Kevelaer) 5:16:47 5:16:02
278 6 244 87 Britz, Werner (DEU) M65 1945 100 Marathon Club 5:18:18 5:17:34
279 66 245 163 Hechler, Michael (DEU) M45 1964 LT Lustige Schleicher Essen 5:20:22 5:19:39
280 55 246 179 Berg, Josef (DEU) M50 1959 (Kleve) 5:21:11 5:20:26
281 4 35 227 Senzek, Nora (DEU) W55 1954 LT Issum Turboschnecken 5:21:57 5:21:21
282 1 36 111 Eichner, Sigrid (DEU) W70 1940 100 Marathon Club 5:22:05 5:21:37
283 67 247 522 Dickmann, Volker (DEU) M45 1966 Lauffreunde Hadi Wesel 5:26:27 5:25:45
284 3 37 114 Dr. Cavaleiro, Claudia (DEU) W35 1972 OSC Waldniel 5:30:36 5:30:21
285 68 249 221 Bosse, Paul (DEU) M45 1964 Lauffreunde Hadi Wesel 5:36:14 5:35:33
286 7 248 252 Ley, Helmut (DEU) M65 1946 Homberger TV 5:36:14 5:35:50
287 7 250 299 Kloos, Josef (DEU) M70 1937 LG Kammerwald 5:36:45 5:36:09
288 1 251 540 Preisler, Horst (DEU) M75 1935 LAV Hamburg-Nord 5:39:52 5:39:20
289 28 252 181 Biallas, J├╝rgen (DEU) M55 1954 100 Marathon Club 5:40:35 5:39:55
290 29 253 208 Sch├╝ller, Heinz Peter (DEU) M55 1956 (Br├╝hl) 5:49:31 5:48:48
291 8 254 247 Berka, Volker (DEU) M65 1943 DJK Ochtendung 5:51:26 5:50:47
292 6 255 508 Bra├č, Marco (DEU) MHK 1990 (Kreuzau) 5:59:37 5:59:32
293 9 256 538 Sesterheim, Bernhard (DEU) M65 1945 100 Marathon Club 6:01:37 6:00:54
294 17 257 532 Dr. Tymiec, Stefan (DEU) M60 1950 (Wuppertal) 6:21:31 6:21:19